Time;durP1;ratioP1;P1;durP2;ratioP2;P2;SDS_P1;SDS_P2;PMS_P1;PMS_P2;Temp;Humidity;BMP_temperature;BMP_pressure;BME280_temperature;BME280_humidity;BME280_pressure;Samples;Min_cycle;Max_cycle;Signal;HPM_P1;HPM_P2
2023/03/10 00:01:28;;;;;;;2.47;1.40;;;11.50;99.90;;;;;;6025128;23;20212;-65
2023/03/10 00:03:57;;;;;;;3.58;1.80;;;11.50;99.90;;;;;;6032448;23;20264;-64
2023/03/10 00:06:27;;;;;;;2.70;1.38;;;11.50;99.90;;;;;;6049191;23;20225;-64
2023/03/10 00:08:55;;;;;;;2.50;1.52;;;11.40;99.90;;;;;;6033074;23;20292;-65
2023/03/10 00:11:22;;;;;;;3.85;1.52;;;11.40;99.90;;;;;;6047251;23;20297;-65
2023/03/10 00:13:49;;;;;;;3.20;1.83;;;11.40;99.90;;;;;;6049951;23;20544;-65
2023/03/10 00:16:19;;;;;;;1.95;1.40;;;11.30;99.90;;;;;;6031730;23;20645;-65
2023/03/10 00:18:46;;;;;;;2.13;1.65;;;11.30;99.90;;;;;;6050756;23;20201;-65
2023/03/10 00:21:15;;;;;;;2.45;1.70;;;11.20;99.90;;;;;;6028909;23;20190;-64
2023/03/10 00:23:43;;;;;;;3.10;2.03;;;11.20;99.90;;;;;;6054100;23;20191;-64
2023/03/10 00:26:13;;;;;;;3.63;1.60;;;11.20;99.90;;;;;;6046995;23;20220;-66
2023/03/10 00:28:40;;;;;;;3.25;1.75;;;11.20;99.90;;;;;;6048580;23;20211;-64
2023/03/10 00:31:10;;;;;;;3.50;1.35;;;11.10;99.90;;;;;;6033980;23;20223;-65
2023/03/10 00:33:38;;;;;;;2.80;1.30;;;11.10;99.90;;;;;;6043394;23;20536;-65
2023/03/10 00:36:07;;;;;;;4.35;1.63;;;11.10;99.90;;;;;;6048773;23;20284;-64
2023/03/10 00:38:35;;;;;;;2.47;1.55;;;11.10;99.90;;;;;;6029383;23;20213;-65
2023/03/10 00:41:06;;;;;;;3.20;1.52;;;11.10;99.90;;;;;;6039994;23;20192;-65
2023/03/10 00:43:33;;;;;;;3.00;1.58;;;11.10;99.90;;;;;;6040557;23;20232;-64
2023/03/10 00:46:01;;;;;;;2.00;1.40;;;11.00;99.90;;;;;;6026130;23;20213;-65
2023/03/10 00:48:29;;;;;;;1.73;1.45;;;11.00;99.90;;;;;;6026603;23;20268;-65
2023/03/10 00:50:56;;;;;;;3.13;1.50;;;11.00;99.90;;;;;;6026981;23;20213;-65
2023/03/10 00:53:24;;;;;;;2.22;1.20;;;11.00;99.90;;;;;;6031827;23;20193;-65
2023/03/10 00:55:59;;;;;;;2.45;1.50;;;11.00;99.90;;;;;;6028797;23;20182;-65
2023/03/10 00:58:28;;;;;;;4.00;1.42;;;11.00;99.90;;;;;;6024744;23;20282;-65
2023/03/10 01:00:56;;;;;;;3.88;1.48;;;11.00;99.90;;;;;;6027341;23;20276;-65
2023/03/10 01:03:24;;;;;;;4.30;1.40;;;10.90;99.90;;;;;;6029954;23;20217;-65
2023/03/10 01:05:51;;;;;;;2.85;1.50;;;11.00;99.90;;;;;;6024329;23;20193;-65
2023/03/10 01:08:19;;;;;;;1.83;1.20;;;11.00;99.90;;;;;;6038962;23;20635;-65
2023/03/10 01:10:47;;;;;;;2.45;1.42;;;11.00;99.90;;;;;;6034281;23;20209;-64
2023/03/10 01:13:16;;;;;;;1.60;1.45;;;11.00;99.90;;;;;;6030857;23;20196;-64
2023/03/10 01:15:46;;;;;;;3.45;1.77;;;11.00;99.90;;;;;;6038122;23;20604;-65
2023/03/10 01:18:13;;;;;;;4.15;1.80;;;11.00;99.90;;;;;;6033037;23;20235;-65
2023/03/10 01:20:41;;;;;;;3.13;1.60;;;10.90;99.90;;;;;;6028677;23;20191;-65
2023/03/10 01:23:12;;;;;;;2.88;1.73;;;10.90;99.90;;;;;;6042437;23;20186;-64
2023/03/10 01:25:39;;;;;;;2.47;1.50;;;10.90;99.90;;;;;;6029281;23;20272;-64
2023/03/10 01:28:06;;;;;;;2.47;1.30;;;10.90;99.90;;;;;;6036302;23;20623;-65
2023/03/10 01:30:33;;;;;;;1.50;1.20;;;10.90;99.90;;;;;;6027663;23;20274;-65
2023/03/10 01:33:01;;;;;;;3.90;1.35;;;10.90;99.90;;;;;;6030882;23;20632;-65
2023/03/10 01:35:29;;;;;;;2.92;1.60;;;10.90;99.90;;;;;;6028023;23;20186;-65
2023/03/10 01:37:56;;;;;;;3.05;1.42;;;10.90;99.90;;;;;;6035462;23;20216;-65
2023/03/10 01:40:25;;;;;;;2.35;1.50;;;10.90;99.90;;;;;;6037571;23;20619;-64
2023/03/10 01:42:52;;;;;;;3.20;1.40;;;10.90;99.90;;;;;;6029851;23;20185;-66
2023/03/10 01:45:56;;;;;;;2.60;1.30;;;10.90;99.90;;;;;;6028621;23;20239;-65
2023/03/10 01:48:25;;;;;;;2.13;1.30;;;10.90;99.90;;;;;;6032271;23;20205;-65
2023/03/10 01:50:55;;;;;;;2.08;1.27;;;10.90;99.90;;;;;;6035151;23;20217;-66
2023/03/10 01:53:24;;;;;;;3.08;1.30;;;11.00;99.90;;;;;;6028813;23;20645;-66
2023/03/10 01:55:55;;;;;;;2.17;1.10;;;11.00;99.90;;;;;;6028669;23;20201;-65
2023/03/10 01:58:24;;;;;;;2.80;1.30;;;11.00;99.90;;;;;;6023061;23;20643;-65
2023/03/10 02:00:54;;;;;;;1.63;1.10;;;11.10;99.90;;;;;;6025914;23;20280;-65
2023/03/10 02:03:26;;;;;;;1.55;1.23;;;11.10;99.90;;;;;;6029714;23;20259;-64
2023/03/10 02:05:56;;;;;;;1.77;1.20;;;11.10;99.90;;;;;;6028175;23;20187;-64
2023/03/10 02:08:26;;;;;;;2.50;1.27;;;11.10;99.90;;;;;;6026138;23;20609;-64
2023/03/10 02:10:53;;;;;;;2.45;1.15;;;11.10;99.90;;;;;;6036112;23;20262;-64
2023/03/10 02:13:20;;;;;;;3.10;1.55;;;11.10;99.90;;;;;;6023994;23;20538;-65
2023/03/10 02:15:47;;;;;;;3.22;1.17;;;11.20;99.90;;;;;;6034364;23;20200;-65
2023/03/10 02:18:16;;;;;;;2.25;1.20;;;11.20;99.90;;;;;;6044475;23;20208;-65
2023/03/10 02:20:52;;;;;;;2.63;1.15;;;11.20;99.90;;;;;;6033365;23;20288;-65
2023/03/10 02:23:27;;;;;;;2.30;1.25;;;11.20;99.90;;;;;;6033632;23;20220;-65
2023/03/10 02:25:58;;;;;;;1.80;1.20;;;11.20;99.90;;;;;;6024599;23;20181;-66
2023/03/10 02:28:27;;;;;;;1.48;1.17;;;11.20;99.90;;;;;;6043085;23;20690;-64
2023/03/10 02:30:56;;;;;;;1.48;0.90;;;11.10;99.90;;;;;;6029715;23;20292;-65
2023/03/10 02:33:26;;;;;;;1.23;1.05;;;11.10;99.90;;;;;;6021150;23;20244;-64
2023/03/10 02:35:53;;;;;;;1.20;1.00;;;11.10;99.90;;;;;;6027898;23;20268;-65
2023/03/10 02:38:20;;;;;;;2.38;1.00;;;11.00;99.90;;;;;;6046254;23;20544;-65
2023/03/10 02:40:49;;;;;;;1.85;1.15;;;11.00;99.90;;;;;;6042434;23;20190;-64
2023/03/10 02:43:19;;;;;;;1.42;0.90;;;11.00;99.90;;;;;;6032893;23;20221;-64
2023/03/10 02:45:49;;;;;;;2.50;0.95;;;10.90;99.90;;;;;;6033083;23;20248;-65
2023/03/10 02:48:22;;;;;;;1.33;1.05;;;10.90;99.90;;;;;;6041224;23;20209;-64
2023/03/10 02:50:49;;;;;;;0.90;0.80;;;10.90;99.90;;;;;;6025888;23;20777;-65
2023/03/10 02:53:19;;;;;;;2.75;0.80;;;10.90;99.90;;;;;;6049180;23;20227;-65
2023/03/10 02:55:47;;;;;;;1.05;0.70;;;10.90;99.90;;;;;;6036605;23;20652;-65
2023/03/10 02:58:14;;;;;;;1.50;0.82;;;10.80;99.90;;;;;;6027400;23;20334;-65
2023/03/10 03:00:43;;;;;;;1.60;1.00;;;10.80;99.90;;;;;;6016706;23;20649;-65
2023/03/10 03:03:13;;;;;;;1.38;0.82;;;10.80;99.90;;;;;;6034779;23;20192;-64
2023/03/10 03:05:41;;;;;;;0.93;0.70;;;10.80;99.90;;;;;;6040529;23;20189;-65
2023/03/10 03:08:09;;;;;;;1.33;0.80;;;10.80;99.90;;;;;;6035745;23;20292;-65
2023/03/10 03:10:38;;;;;;;1.45;1.20;;;10.80;99.90;;;;;;6039080;23;20181;-65
2023/03/10 03:13:06;;;;;;;1.30;1.00;;;10.80;99.90;;;;;;6040816;23;20272;-64
2023/03/10 03:15:33;;;;;;;2.25;1.02;;;10.80;99.90;;;;;;6040188;23;20224;-65
2023/03/10 03:18:00;;;;;;;1.50;0.88;;;10.70;99.90;;;;;;6053335;23;20211;-66
2023/03/10 03:20:29;;;;;;;0.70;0.70;;;10.70;99.90;;;;;;6045619;23;20637;-65
2023/03/10 03:22:57;;;;;;;0.88;0.80;;;10.70;99.90;;;;;;6035758;23;20185;-65
2023/03/10 03:25:26;;;;;;;1.15;0.90;;;10.60;99.90;;;;;;6038613;23;20216;-65
2023/03/10 03:27:54;;;;;;;1.02;0.60;;;10.60;99.90;;;;;;6034135;23;20587;-64
2023/03/10 03:30:23;;;;;;;1.75;1.13;;;10.60;99.90;;;;;;6035102;23;20181;-65
2023/03/10 03:32:51;;;;;;;1.15;0.90;;;10.60;99.90;;;;;;6035641;23;20251;-64
2023/03/10 03:35:21;;;;;;;0.98;0.70;;;10.50;99.90;;;;;;6027946;23;20285;-64
2023/03/10 03:37:49;;;;;;;1.17;0.77;;;10.50;99.90;;;;;;6025713;23;20208;-65
2023/03/10 03:40:16;;;;;;;1.38;0.80;;;10.50;99.90;;;;;;6022645;23;20616;-65
2023/03/10 03:42:45;;;;;;;1.20;1.00;;;10.50;99.90;;;;;;6023816;23;20189;-65
2023/03/10 03:45:14;;;;;;;1.40;0.70;;;10.40;99.90;;;;;;6026217;23;20705;-65
2023/03/10 03:47:41;;;;;;;1.15;0.75;;;10.40;99.90;;;;;;6024089;23;20205;-65
2023/03/10 03:50:10;;;;;;;1.60;0.85;;;10.40;99.90;;;;;;6032387;23;20212;-65
2023/03/10 03:52:37;;;;;;;2.15;1.13;;;10.30;99.90;;;;;;6022894;23;20331;-65
2023/03/10 03:55:06;;;;;;;1.00;0.90;;;10.30;99.90;;;;;;6029273;23;20189;-65
2023/03/10 03:57:34;;;;;;;0.80;0.80;;;10.20;99.90;;;;;;6044463;23;20227;-65
2023/03/10 04:00:01;;;;;;;1.80;0.70;;;10.10;99.90;;;;;;6041328;23;20689;-65
2023/03/10 04:02:27;;;;;;;0.80;0.70;;;10.10;99.90;;;;;;6029112;23;20205;-65
2023/03/10 04:04:55;;;;;;;1.15;0.90;;;10.10;99.90;;;;;;6030556;23;20185;-64
2023/03/10 04:07:22;;;;;;;1.00;0.80;;;10.10;99.90;;;;;;6026474;23;20221;-65
2023/03/10 04:09:49;;;;;;;1.98;0.70;;;10.00;99.90;;;;;;6028557;23;20269;-64
2023/03/10 04:12:17;;;;;;;1.98;0.68;;;10.00;99.90;;;;;;6022607;23;20216;-65
2023/03/10 04:14:44;;;;;;;1.17;1.00;;;10.00;99.90;;;;;;6040454;23;20591;-64
2023/03/10 04:17:11;;;;;;;1.02;0.80;;;9.90;99.90;;;;;;6030679;23;20228;-65
2023/03/10 04:19:38;;;;;;;1.02;0.85;;;9.90;99.90;;;;;;6038799;23;20502;-64
2023/03/10 04:22:05;;;;;;;1.73;0.60;;;9.90;99.90;;;;;;6029354;23;20188;-65
2023/03/10 04:24:32;;;;;;;0.90;0.60;;;9.90;99.90;;;;;;6050822;23;20280;-65
2023/03/10 04:26:59;;;;;;;0.90;0.80;;;9.90;99.90;;;;;;6026691;23;20239;-64
2023/03/10 04:29:27;;;;;;;0.60;0.60;;;9.90;99.90;;;;;;6030027;23;20268;-64
2023/03/10 04:31:54;;;;;;;1.23;0.60;;;9.80;99.90;;;;;;6025490;23;20231;-65
2023/03/10 04:34:21;;;;;;;1.25;0.70;;;9.80;99.90;;;;;;6043658;23;20683;-65
2023/03/10 04:36:48;;;;;;;1.58;1.02;;;9.80;99.90;;;;;;6029926;23;20247;-65
2023/03/10 04:39:15;;;;;;;0.88;0.60;;;9.80;99.90;;;;;;6030496;23;20703;-64
2023/03/10 04:41:42;;;;;;;0.95;0.65;;;9.70;99.90;;;;;;6024341;23;20192;-64
2023/03/10 04:44:10;;;;;;;1.08;0.60;;;9.70;99.90;;;;;;6029719;23;20212;-64
2023/03/10 04:46:38;;;;;;;1.67;0.70;;;9.70;99.90;;;;;;6048027;23;20259;-64
2023/03/10 04:49:06;;;;;;;0.90;0.68;;;9.70;99.90;;;;;;6043735;23;20745;-65
2023/03/10 04:51:33;;;;;;;0.98;0.60;;;9.70;99.90;;;;;;6031750;23;20209;-65
2023/03/10 04:54:00;;;;;;;0.85;0.70;;;9.70;99.90;;;;;;6048206;23;20199;-64
2023/03/10 04:56:28;;;;;;;1.13;0.70;;;9.70;99.90;;;;;;6021392;23;20188;-65
2023/03/10 04:58:55;;;;;;;0.73;0.70;;;9.80;99.90;;;;;;6031911;23;20205;-65
2023/03/10 05:01:21;;;;;;;2.53;0.70;;;9.80;99.90;;;;;;6031082;23;20272;-65
2023/03/10 05:03:50;;;;;;;1.65;1.00;;;9.90;99.90;;;;;;6040767;23;20384;-64
2023/03/10 05:06:20;;;;;;;1.50;0.90;;;9.80;99.90;;;;;;6030795;23;20264;-65
2023/03/10 05:08:47;;;;;;;1.20;0.65;;;9.90;99.90;;;;;;6032092;23;20221;-65
2023/03/10 05:11:14;;;;;;;1.23;0.60;;;9.80;99.90;;;;;;6036184;23;20193;-65
2023/03/10 05:13:41;;;;;;;3.03;0.90;;;9.70;99.90;;;;;;6031652;23;20201;-65
2023/03/10 05:16:13;;;;;;;1.70;0.88;;;9.60;99.90;;;;;;6035673;23;20188;-66
2023/03/10 05:18:40;;;;;;;1.48;0.80;;;9.50;99.90;;;;;;6033917;23;20216;-65
2023/03/10 05:21:09;;;;;;;7.10;1.02;;;9.50;99.90;;;;;;6057579;23;20192;-65
2023/03/10 05:23:36;;;;;;;1.33;0.93;;;9.40;99.90;;;;;;6045837;23;20215;-65
2023/03/10 05:26:04;;;;;;;1.05;0.80;;;9.40;99.90;;;;;;6032964;23;20196;-71
2023/03/10 05:28:31;;;;;;;2.00;0.90;;;9.30;99.90;;;;;;6037574;23;20208;-71
2023/03/10 05:30:58;;;;;;;2.97;0.88;;;9.30;99.90;;;;;;6031182;23;20199;-69
2023/03/10 05:33:25;;;;;;;1.90;1.02;;;9.30;99.90;;;;;;6030079;23;20229;-69
2023/03/10 05:35:52;;;;;;;1.33;0.90;;;9.30;99.90;;;;;;6036757;23;20283;-70
2023/03/10 05:38:21;;;;;;;1.73;1.05;;;9.00;99.90;;;;;;6045884;23;20759;-71
2023/03/10 05:40:48;;;;;;;2.55;0.80;;;9.30;99.90;;;;;;6046695;23;20196;-69
2023/03/10 05:43:15;;;;;;;1.25;0.80;;;9.20;99.90;;;;;;6043441;23;20192;-70
2023/03/10 05:45:42;;;;;;;1.02;0.82;;;9.20;99.90;;;;;;6053251;23;20191;-70
2023/03/10 05:48:09;;;;;;;1.42;0.90;;;9.30;99.90;;;;;;6045011;23;20217;-72
2023/03/10 05:50:36;;;;;;;1.42;0.90;;;9.20;99.90;;;;;;6035497;23;20272;-69
2023/03/10 05:53:03;;;;;;;1.60;1.02;;;9.20;99.90;;;;;;6034362;23;20263;-71
2023/03/10 05:55:32;;;;;;;2.22;1.00;;;9.30;99.90;;;;;;6032941;23;20212;-70
2023/03/10 05:57:59;;;;;;;1.30;0.90;;;9.30;99.90;;;;;;6028818;23;20228;-70
2023/03/10 06:00:26;;;;;;;0.95;0.70;;;9.40;99.90;;;;;;6039267;23;20205;-70
2023/03/10 06:02:53;;;;;;;2.10;0.90;;;9.40;99.90;;;;;;6028521;23;20197;-68
2023/03/10 06:05:20;;;;;;;1.42;1.33;;;9.50;99.90;;;;;;6039158;23;20269;-70
2023/03/10 06:07:47;;;;;;;2.58;1.10;;;9.50;99.90;;;;;;6032206;23;20733;-71
2023/03/10 06:10:14;;;;;;;1.30;1.20;;;9.50;99.90;;;;;;6045599;23;20188;-70
2023/03/10 06:12:42;;;;;;;2.33;1.00;;;9.60;99.90;;;;;;6039600;23;20213;-70
2023/03/10 06:15:10;;;;;;;0.95;0.85;;;9.60;99.90;;;;;;6039330;23;20258;-70
2023/03/10 06:17:37;;;;;;;1.70;0.90;;;9.70;99.90;;;;;;6033616;23;20300;-71
2023/03/10 06:20:05;;;;;;;3.72;1.17;;;9.80;99.90;;;;;;6035803;23;20201;-69
2023/03/10 06:22:31;;;;;;;2.25;1.17;;;9.80;99.90;;;;;;6062679;23;20207;-70
2023/03/10 06:24:58;;;;;;;1.70;0.90;;;9.90;99.90;;;;;;6059691;23;20199;-70
2023/03/10 06:27:25;;;;;;;2.50;1.10;;;10.00;99.90;;;;;;6059488;23;20216;-69
2023/03/10 06:29:54;;;;;;;1.30;0.98;;;10.10;99.90;;;;;;6031458;23;20229;-69
2023/03/10 06:32:21;;;;;;;1.05;0.90;;;10.10;99.90;;;;;;6034287;23;20299;-76
2023/03/10 06:34:48;;;;;;;1.80;0.95;;;10.10;99.90;;;;;;6045147;23;20512;-74
2023/03/10 06:37:15;;;;;;;2.42;1.23;;;10.00;99.90;;;;;;6034051;23;20237;-71
2023/03/10 06:39:42;;;;;;;2.55;1.20;;;9.90;99.90;;;;;;6036492;23;20671;-72
2023/03/10 06:42:10;;;;;;;3.50;0.90;;;9.90;99.90;;;;;;6054573;23;20263;-71
2023/03/10 06:44:36;;;;;;;2.45;1.00;;;9.80;99.90;;;;;;6052527;23;20279;-71
2023/03/10 06:47:05;;;;;;;1.00;0.90;;;9.80;99.90;;;;;;6037656;23;20288;-71
2023/03/10 06:49:33;;;;;;;1.40;1.00;;;9.80;99.90;;;;;;6054963;23;20730;-71
2023/03/10 06:52:01;;;;;;;2.78;1.05;;;9.80;99.90;;;;;;6045524;23;20217;-71
2023/03/10 06:54:27;;;;;;;1.45;1.10;;;9.80;99.90;;;;;;6036116;23;20275;-71
2023/03/10 06:56:55;;;;;;;2.35;0.93;;;9.80;99.90;;;;;;6039665;23;20305;-71
2023/03/10 06:59:22;;;;;;;0.98;0.73;;;9.80;99.90;;;;;;6050692;23;20203;-71
2023/03/10 07:01:49;;;;;;;0.80;0.80;;;9.90;99.90;;;;;;6046396;23;20525;-71
2023/03/10 07:04:17;;;;;;;1.35;0.90;;;9.90;99.90;;;;;;6060482;23;20242;-71
2023/03/10 07:06:44;;;;;;;2.10;0.82;;;9.90;99.90;;;;;;6044540;23;20225;-71
2023/03/10 07:09:11;;;;;;;0.95;0.85;;;10.00;99.90;;;;;;6032045;23;20228;-71
2023/03/10 07:11:38;;;;;;;1.02;0.93;;;10.00;99.90;;;;;;6033572;23;20660;-71
2023/03/10 07:14:06;;;;;;;1.35;0.60;;;10.10;99.90;;;;;;6052218;23;20247;-71
2023/03/10 07:16:33;;;;;;;1.67;0.60;;;10.10;99.90;;;;;;6049600;23;20189;-71
2023/03/10 07:19:00;;;;;;;1.35;0.90;;;10.10;99.90;;;;;;6034039;23;20313;-71
2023/03/10 07:21:28;;;;;;;0.93;0.60;;;10.10;99.90;;;;;;6033361;23;20220;-71
2023/03/10 07:23:55;;;;;;;1.20;1.10;;;10.10;99.90;;;;;;6038198;23;20583;-70
2023/03/10 07:26:22;;;;;;;1.52;0.75;;;10.10;99.90;;;;;;6047921;23;20621;-71
2023/03/10 07:28:49;;;;;;;1.50;0.70;;;10.10;99.90;;;;;;6054164;23;20213;-71
2023/03/10 07:31:17;;;;;;;1.25;0.60;;;10.10;99.90;;;;;;6060797;23;20220;-71
2023/03/10 07:33:44;;;;;;;0.70;0.60;;;10.10;99.90;;;;;;6043898;23;20307;-71
2023/03/10 07:36:13;;;;;;;0.90;0.60;;;10.10;99.90;;;;;;6048377;23;20204;-72
2023/03/10 07:38:41;;;;;;;1.70;0.70;;;10.10;99.90;;;;;;6055902;23;20223;-71
2023/03/10 07:41:10;;;;;;;1.35;0.60;;;10.10;99.90;;;;;;6062851;23;20193;-70
2023/03/10 07:43:37;;;;;;;0.93;0.60;;;10.10;99.90;;;;;;6050735;23;20276;-70
2023/03/10 07:46:05;;;;;;;1.65;0.68;;;10.10;99.90;;;;;;6038231;23;20193;-71
2023/03/10 07:48:32;;;;;;;1.02;0.60;;;10.10;99.90;;;;;;6043025;23;20215;-71
2023/03/10 07:51:00;;;;;;;1.08;0.70;;;10.00;99.90;;;;;;6062198;23;20193;-71
2023/03/10 07:53:27;;;;;;;1.20;0.70;;;10.00;99.90;;;;;;6060039;23;20220;-70
2023/03/10 07:55:56;;;;;;;2.40;0.75;;;10.00;99.90;;;;;;6043986;23;20691;-70
2023/03/10 07:58:23;;;;;;;0.90;0.70;;;10.00;99.90;;;;;;6035428;23;20838;-71
2023/03/10 08:00:55;;;;;;;1.38;0.88;;;10.10;99.90;;;;;;6059225;23;20211;-71
2023/03/10 08:03:22;;;;;;;1.42;0.80;;;10.10;99.90;;;;;;6053517;23;20268;-71
2023/03/10 08:05:50;;;;;;;1.35;0.65;;;10.10;99.90;;;;;;6047614;23;20197;-71
2023/03/10 08:08:17;;;;;;;1.15;0.75;;;10.10;99.90;;;;;;6042001;23;20213;-72
2023/03/10 08:10:45;;;;;;;1.60;0.70;;;10.10;99.90;;;;;;6036073;23;20217;-71
2023/03/10 08:13:13;;;;;;;1.48;0.95;;;10.00;99.90;;;;;;6041232;23;20217;-71
2023/03/10 08:15:40;;;;;;;1.90;0.90;;;9.90;99.90;;;;;;6054024;23;20197;-71
2023/03/10 08:18:09;;;;;;;2.60;1.00;;;9.90;99.90;;;;;;6036038;23;20817;-71
2023/03/10 08:20:39;;;;;;;1.13;0.73;;;9.80;99.90;;;;;;6062561;23;20188;-71
2023/03/10 08:23:05;;;;;;;1.67;0.80;;;9.70;99.90;;;;;;6054426;23;20193;-71
2023/03/10 08:25:33;;;;;;;1.35;0.80;;;9.60;99.90;;;;;;6055192;23;20708;-71
2023/03/10 08:27:59;;;;;;;1.25;0.77;;;9.50;99.90;;;;;;6032852;23;20223;-70
2023/03/10 08:30:28;;;;;;;1.85;0.90;;;9.40;99.90;;;;;;6032865;23;20189;-70
2023/03/10 08:32:55;;;;;;;1.63;0.85;;;9.30;99.90;;;;;;6040225;23;20592;-70
2023/03/10 08:35:22;;;;;;;2.33;0.80;;;9.20;99.90;;;;;;6036900;23;20658;-70
2023/03/10 08:37:51;;;;;;;0.93;0.70;;;9.10;99.90;;;;;;6032444;23;20235;-71
2023/03/10 08:40:18;;;;;;;2.22;0.90;;;9.10;99.90;;;;;;6061524;23;20219;-71
2023/03/10 08:42:45;;;;;;;2.05;0.80;;;9.10;99.90;;;;;;6061353;23;20619;-71
2023/03/10 08:45:13;;;;;;;1.55;0.90;;;9.00;99.90;;;;;;6042412;23;20540;-70
2023/03/10 08:47:42;;;;;;;1.45;0.80;;;9.00;99.90;;;;;;6005326;23;20210;-70
2023/03/10 08:50:11;;;;;;;0.90;0.70;;;9.10;99.90;;;;;;6053303;23;20193;-71
2023/03/10 08:52:39;;;;;;;2.67;0.80;;;9.10;99.90;;;;;;6059128;23;20231;-70
2023/03/10 08:55:07;;;;;;;3.40;0.90;;;9.10;99.90;;;;;;6044046;23;20628;-71
2023/03/10 08:57:34;;;;;;;3.08;1.15;;;9.10;99.90;;;;;;6043154;23;20215;-70
2023/03/10 09:00:00;;;;;;;1.83;0.70;;;9.10;99.90;;;;;;6033434;23;20193;-71
2023/03/10 09:02:28;;;;;;;1.23;0.80;;;9.10;99.90;;;;;;6045457;23;20234;-70
2023/03/10 09:04:56;;;;;;;1.45;0.73;;;9.40;99.90;;;;;;6046625;23;20280;-70
2023/03/10 09:07:23;;;;;;;3.25;0.77;;;9.90;99.90;;;;;;6032190;23;20275;-70
2023/03/10 09:09:50;;;;;;;0.82;0.52;;;10.30;99.90;;;;;;6032975;23;20212;-70
2023/03/10 09:12:17;;;;;;;1.10;0.70;;;10.50;99.90;;;;;;6040755;23;20193;-70
2023/03/10 09:14:44;;;;;;;2.42;0.70;;;10.60;99.90;;;;;;6048128;23;20572;-71
2023/03/10 09:17:11;;;;;;;3.38;0.75;;;10.70;99.90;;;;;;6034880;23;20240;-70
2023/03/10 09:19:38;;;;;;;1.45;0.70;;;11.00;99.90;;;;;;6061712;23;20188;-71
2023/03/10 09:22:07;;;;;;;1.08;0.80;;;11.20;99.90;;;;;;6059064;23;20260;-71
2023/03/10 09:24:34;;;;;;;1.08;0.65;;;11.40;99.90;;;;;;6051288;23;20194;-70
2023/03/10 09:27:01;;;;;;;1.13;0.80;;;11.70;99.90;;;;;;6043569;23;20210;-70
2023/03/10 09:29:27;;;;;;;2.15;0.82;;;11.90;99.90;;;;;;6036990;23;20194;-70
2023/03/10 09:31:55;;;;;;;1.10;0.60;;;12.10;99.90;;;;;;6032559;23;20586;-70
2023/03/10 09:34:22;;;;;;;2.97;0.90;;;11.90;99.90;;;;;;6036114;23;20221;-71
2023/03/10 09:36:49;;;;;;;0.95;0.70;;;11.80;99.90;;;;;;6033425;23;20931;-71
2023/03/10 09:39:18;;;;;;;2.75;0.95;;;11.60;99.90;;;;;;6056432;23;20199;-72
2023/03/10 09:42:14;;;;;;;2.40;1.10;;;11.40;99.90;;;;;;6058171;23;20225;-71
2023/03/10 09:44:48;;;;;;;1.40;0.80;;;11.20;99.90;;;;;;6047621;23;20357;-70
2023/03/10 09:47:24;;;;;;;1.25;0.82;;;10.90;99.90;;;;;;6059080;23;20628;-70
2023/03/10 09:50:03;;;;;;;0.85;0.60;;;10.70;99.90;;;;;;6062323;23;20250;-71
2023/03/10 09:52:40;;;;;;;1.40;0.70;;;10.50;99.90;;;;;;6060332;23;20192;-70
2023/03/10 09:55:19;;;;;;;1.92;0.70;;;10.40;99.90;;;;;;6040301;23;20281;-72
2023/03/10 09:57:48;;;;;;;2.22;0.90;;;10.30;99.90;;;;;;6033604;23;20263;-71
2023/03/10 10:00:22;;;;;;;1.15;0.70;;;10.10;99.90;;;;;;6049760;23;20197;-72
2023/03/10 10:02:56;;;;;;;1.60;0.85;;;10.00;99.90;;;;;;6029667;23;20721;-71
2023/03/10 10:05:26;;;;;;;2.92;0.80;;;10.10;99.90;;;;;;6045530;23;20188;-71
2023/03/10 10:07:56;;;;;;;1.60;0.80;;;10.10;99.90;;;;;;6016528;23;20235;-71
2023/03/10 10:10:28;;;;;;;1.88;1.05;;;10.10;99.90;;;;;;6005664;23;20213;-70
2023/03/10 10:12:58;;;;;;;1.40;1.00;;;10.10;99.90;;;;;;6030453;23;20652;-71
2023/03/10 10:15:27;;;;;;;1.33;0.90;;;10.10;99.90;;;;;;6018202;23;21437;-71
2023/03/10 10:18:07;;;;;;;5.28;1.35;;;10.00;99.90;;;;;;6034028;23;20612;-71
2023/03/10 10:20:39;;;;;;;1.92;0.90;;;10.00;99.90;;;;;;6032960;23;20196;-71
2023/03/10 10:23:15;;;;;;;2.72;1.13;;;10.00;99.90;;;;;;6033545;23;20569;-71
2023/03/10 10:25:43;;;;;;;0.93;0.70;;;9.90;99.90;;;;;;6060878;23;20195;-71
2023/03/10 10:28:20;;;;;;;2.25;0.73;;;9.80;99.90;;;;;;6062795;23;20220;-71
2023/03/10 10:30:48;;;;;;;1.95;0.80;;;9.80;99.90;;;;;;6049187;23;20189;-71
2023/03/10 10:33:16;;;;;;;2.65;1.20;;;9.70;99.90;;;;;;6045541;23;20323;-71
2023/03/10 10:35:45;;;;;;;1.98;1.30;;;9.60;99.90;;;;;;6062631;23;20200;-71
2023/03/10 10:38:25;;;;;;;2.80;1.10;;;9.60;99.90;;;;;;6057376;23;20294;-71
2023/03/10 10:41:01;;;;;;;1.08;0.80;;;9.40;99.90;;;;;;6060370;23;20192;-71
2023/03/10 10:43:29;;;;;;;2.78;0.80;;;9.30;99.90;;;;;;6036077;23;20202;-71
2023/03/10 10:45:58;;;;;;;1.83;1.10;;;9.20;99.90;;;;;;6050728;23;20195;-72
2023/03/10 10:48:35;;;;;;;2.40;0.82;;;9.10;99.90;;;;;;6035696;23;20233;-71
2023/03/10 10:51:03;;;;;;;2.83;0.85;;;9.00;99.90;;;;;;6031838;23;20204;-70
2023/03/10 10:53:33;;;;;;;2.38;1.10;;;9.00;99.90;;;;;;6046380;23;20680;-71
2023/03/10 10:56:04;;;;;;;7.03;1.30;;;8.90;99.90;;;;;;6032606;23;20703;-72
2023/03/10 10:58:34;;;;;;;1.40;0.80;;;9.00;99.90;;;;;;6046194;23;21824;-70
2023/03/10 11:01:02;;;;;;;1.38;1.00;;;9.00;99.90;;;;;;6037661;23;20204;-71
2023/03/10 11:03:32;;;;;;;2.13;1.38;;;9.10;99.90;;;;;;6059334;23;20284;-71
2023/03/10 11:06:01;;;;;;;3.10;1.10;;;9.10;99.90;;;;;;6054312;23;20703;-72
2023/03/10 11:08:36;;;;;;;1.60;0.95;;;9.20;99.90;;;;;;6050054;23;20221;-72
2023/03/10 11:11:18;;;;;;;2.35;1.25;;;9.30;99.90;;;;;;6038555;23;20278;-70
2023/03/10 11:13:58;;;;;;;1.52;0.90;;;9.40;99.90;;;;;;6033574;23;20236;-71
2023/03/10 11:16:30;;;;;;;1.40;0.90;;;9.50;99.90;;;;;;6035071;23;20276;-71
2023/03/10 11:19:04;;;;;;;1.42;0.80;;;9.60;99.90;;;;;;6035751;23;20197;-71
2023/03/10 11:21:37;;;;;;;2.08;1.25;;;9.60;99.90;;;;;;6061750;23;20284;-71
2023/03/10 11:24:13;;;;;;;1.30;0.82;;;9.70;99.90;;;;;;6057773;23;20200;-71
2023/03/10 11:26:51;;;;;;;2.03;1.30;;;9.80;99.90;;;;;;6047729;23;20288;-72
2023/03/10 11:29:28;;;;;;;2.58;1.15;;;9.90;99.90;;;;;;6039312;23;20202;-71
2023/03/10 11:32:04;;;;;;;1.92;0.82;;;10.00;99.90;;;;;;6062169;23;20325;-72
2023/03/10 11:34:35;;;;;;;2.80;1.30;;;10.10;99.90;;;;;;6057748;23;20219;-71
2023/03/10 11:37:14;;;;;;;1.70;0.80;;;10.10;99.90;;;;;;6044094;23;20216;-69
2023/03/10 11:39:50;;;;;;;3.90;1.40;;;10.20;99.90;;;;;;6036612;23;20223;-70
2023/03/10 11:42:27;;;;;;;3.65;1.35;;;10.20;99.90;;;;;;6061695;23;20215;-70
2023/03/10 11:45:04;;;;;;;1.92;0.90;;;10.30;99.90;;;;;;6059248;23;20200;-71
2023/03/10 11:47:47;;;;;;;1.17;0.70;;;10.40;99.90;;;;;;6033911;23;20731;-71
2023/03/10 11:50:23;;;;;;;1.33;1.00;;;10.40;99.90;;;;;;6054071;23;20196;-71
2023/03/10 11:52:54;;;;;;;1.23;0.70;;;10.40;99.90;;;;;;6056954;23;21859;-71
2023/03/10 11:55:22;;;;;;;1.55;0.82;;;10.40;99.90;;;;;;6037587;23;20608;-71
2023/03/10 11:57:57;;;;;;;3.47;0.90;;;10.40;99.90;;;;;;6034528;23;20271;-71
2023/03/10 12:00:30;;;;;;;2.50;0.93;;;10.30;99.90;;;;;;6045863;23;20288;-70
2023/03/10 12:03:19;;;;;;;2.47;1.17;;;10.30;99.90;;;;;;6035446;23;20675;-71
2023/03/10 12:05:51;;;;;;;1.15;0.70;;;10.20;99.90;;;;;;6061190;23;20193;-71
2023/03/10 12:08:22;;;;;;;1.65;0.80;;;10.20;99.90;;;;;;6054265;23;20217;-71
2023/03/10 12:10:50;;;;;;;0.77;0.57;;;10.20;99.90;;;;;;6042869;23;20217;-71
2023/03/10 12:13:30;;;;;;;2.50;1.05;;;10.20;99.90;;;;;;6036984;23;20611;-71
2023/03/10 12:16:00;;;;;;;0.98;0.60;;;10.30;99.90;;;;;;6060965;23;20187;-70
2023/03/10 12:18:28;;;;;;;1.90;0.73;;;10.40;99.90;;;;;;6060469;23;20209;-71
2023/03/10 12:21:17;;;;;;;1.13;0.70;;;10.40;99.90;;;;;;6054909;23;20189;-70
2023/03/10 12:23:46;;;;;;;1.67;1.40;;;10.60;99.90;;;;;;6031511;23;20213;-71
2023/03/10 12:26:14;;;;;;;1.55;0.90;;;10.80;99.90;;;;;;6048280;23;20543;-71
2023/03/10 12:28:42;;;;;;;1.80;0.80;;;10.80;99.90;;;;;;6061714;23;20267;-71
2023/03/10 12:31:11;;;;;;;0.88;0.60;;;10.80;99.90;;;;;;6042404;23;20194;-72
2023/03/10 12:33:52;;;;;;;0.80;0.75;;;10.80;99.90;;;;;;6061717;23;20259;-71
2023/03/10 12:36:39;;;;;;;1.73;0.65;;;10.90;99.90;;;;;;6058734;23;20199;-70
2023/03/10 12:39:30;;;;;;;0.82;0.60;;;10.80;99.90;;;;;;6040145;23;20280;-71
2023/03/10 12:41:57;;;;;;;1.02;0.52;;;10.70;99.90;;;;;;6031818;23;20660;-71
2023/03/10 12:44:37;;;;;;;1.40;0.68;;;10.70;99.90;;;;;;6054890;23;20288;-71
2023/03/10 12:47:28;;;;;;;0.80;0.60;;;10.60;99.90;;;;;;6041236;23;20301;-72
2023/03/10 12:50:01;;;;;;;1.00;0.70;;;10.60;99.90;;;;;;6021981;23;20268;-72
2023/03/10 12:52:38;;;;;;;0.82;0.50;;;10.60;99.90;;;;;;6022413;23;20196;-71
2023/03/10 12:55:16;;;;;;;0.60;0.50;;;10.60;99.90;;;;;;6031542;23;20223;-71
2023/03/10 12:57:53;;;;;;;0.98;0.50;;;10.50;99.90;;;;;;6017403;23;20205;-70
2023/03/10 13:00:33;;;;;;;0.60;0.45;;;10.50;99.90;;;;;;6032091;23;20786;-70
2023/03/10 13:03:05;;;;;;;0.75;0.60;;;10.50;99.90;;;;;;6025753;23;20530;-70